Annong, China

11:56 PM CST on March 28, 2017 (GMT +0800)
Duke Kunshan University | | Change Station

Elev 7 ft 31.42 °N, 120.89 °E | Updated 6 seconds ago

Mostly Cloudy
Mostly Cloudy
61.3 °F
Feels Like 61.3 °F
N
1.1
Wind Variable Wind from NW
Gusts 2.5 mph

Today
High -- | Low -- °F
--% Chance of Precip.
Yesterday
High -- | Low -- °F
Precip. -- in
Pressure 30.06 in
Visibility -9999.0 miles
Clouds
Dew Point 51 °F
Humidity 69%
Rainfall 0.00 in
Snow Depth Not available.
5:49 AM 6:12 PM
New Moon, 0% visible
METAR ZSSS 281530Z 22003MPS CAVOK 16/09 Q1018 NOSIG
Pressure 30.06 in
Visibility -9999.0 miles
Clouds
Dew Point 51 °F
Humidity 69%
Rainfall 0.00 in
Snow Depth Not available.
5:49 AM 6:12 PM
New Moon, 0% visible
METAR ZSSS 281530Z 22003MPS CAVOK 16/09 Q1018 NOSIG

Get Severe Weather Alerts

Thanks for signing up!

Be on the lookout for a verification email in your inbox.

You'll start receiving the daily forecast at 8 AM.

×

10-Day Weather Forecast

No radar image for this location.
×

Almanac

Astronomy

Mar. 28, 2017 Rise Set
Actual Time
Civil Twilight
Nautical Twilight
Astronomical Twilight
Moon
Length of Visible Light
Length of Day
Tomorrow will be .
, % of the Moon is Illuminated

Today's Extremes

Country Highs Country Lows

Community

WunderPhotos

Upload Photos

1,962,540 photos uploaded!

WunderBlog® & News

Nearby

Air Quality

  Air Quality AQ Index Pollutant
Not available.

Snow Depth

Station Depth Elevation

Earthquake Activity

City Distance Mag. Time & Date
Minimum magnitude displayed is 2.5.

Earthquake Activity

City Distance Mag. Time & Date
Minimum magnitude displayed is 2.5.

Coastal Water Temperatures

Place Temperature

Stations

Nearby Weather Stations

Station Location Temp. Windchill Dew Point Humidity Wind Precip. Elev Updated Type